Time,TemperatureF,DewpointF,PressureIn,WindDirection,WindDirectionDegrees,WindSpeedMPH,WindSpeedGustMPH,Humidity,HourlyPrecipIn,Conditions,Clouds,dailyrainin,SoftwareType,DateUTC
2013-07-27 00:07:00,65.5,60.0,29.95,NNE,30,1.0,-999.0,81,-99.99,,,0.04,weatherlink.com 1.10,2013-07-27 07:07:00,
2013-07-27 00:22:00,65.3,59.0,29.95,NNE,30,0.0,-999.0,80,-99.99,,,0.04,weatherlink.com 1.10,2013-07-27 07:22:00,
2013-07-27 00:37:00,65.3,59.0,29.94,North,351,2.0,-999.0,81,-99.99,,,0.04,weatherlink.com 1.10,2013-07-27 07:37:00,
2013-07-27 00:52:00,65.2,59.0,29.94,North,351,0.0,-999.0,81,-99.99,,,0.00,weatherlink.com 1.10,2013-07-27 07:52:00,
2013-07-27 01:07:00,65.2,59.0,29.94,North,351,0.0,-999.0,81,-99.99,,,0.00,weatherlink.com 1.10,2013-07-27 08:07:00,
2013-07-27 01:22:00,65.1,59.0,29.94,North,351,0.0,-999.0,81,-99.99,,,0.00,weatherlink.com 1.10,2013-07-27 08:22:00,
2013-07-27 01:37:00,65.0,59.0,29.94,North,351,0.0,-999.0,82,-99.99,,,0.00,weatherlink.com 1.10,2013-07-27 08:37:00,
2013-07-27 01:52:00,64.8,59.0,29.94,North,351,0.0,-999.0,82,-99.99,,,0.00,weatherlink.com 1.10,2013-07-27 08:52:00,
2013-07-27 02:07:00,64.8,60.0,29.94,North,351,0.0,-999.0,83,-99.99,,,0.00,weatherlink.com 1.10,2013-07-27 09:07:00,
2013-07-27 02:22:00,64.6,59.0,29.94,North,351,0.0,-999.0,83,-99.99,,,0.00,weatherlink.com 1.10,2013-07-27 09:22:00,
2013-07-27 02:37:00,64.5,60.0,29.94,North,351,0.0,-999.0,84,-99.99,,,0.00,weatherlink.com 1.10,2013-07-27 09:37:00,
2013-07-27 02:52:00,64.3,59.0,29.93,North,351,0.0,-999.0,84,-99.99,,,0.00,weatherlink.com 1.10,2013-07-27 09:52:00,
2013-07-27 03:07:00,64.4,60.0,29.93,North,351,0.0,-999.0,85,-99.99,,,0.00,weatherlink.com 1.10,2013-07-27 10:07:00,
2013-07-27 03:22:00,64.5,60.0,29.93,North,351,0.0,-999.0,85,-99.99,,,0.00,weatherlink.com 1.10,2013-07-27 10:22:00,
2013-07-27 03:37:00,64.5,60.0,29.93,North,351,0.0,-999.0,85,-99.99,,,0.00,weatherlink.com 1.10,2013-07-27 10:37:00,
2013-07-27 03:52:00,64.5,60.0,29.93,North,351,0.0,-999.0,86,-99.99,,,0.00,weatherlink.com 1.10,2013-07-27 10:52:00,
2013-07-27 04:07:00,64.4,60.0,29.93,North,351,0.0,-999.0,86,-99.99,,,0.00,weatherlink.com 1.10,2013-07-27 11:07:00,
2013-07-27 04:22:00,64.4,61.0,29.93,North,351,0.0,-999.0,87,-99.99,,,0.00,weatherlink.com 1.10,2013-07-27 11:22:00,
2013-07-27 04:37:00,64.2,60.0,29.93,North,351,0.0,-999.0,87,-99.99,,,0.00,weatherlink.com 1.10,2013-07-27 11:37:00,
2013-07-27 04:52:00,64.1,60.0,29.93,North,351,0.0,-999.0,87,-99.99,,,0.00,weatherlink.com 1.10,2013-07-27 11:52:00,
2013-07-27 05:07:00,64.1,60.0,29.93,North,351,0.0,-999.0,87,-99.99,,,0.00,weatherlink.com 1.10,2013-07-27 12:07:00,
2013-07-27 05:22:00,64.0,60.0,29.93,North,351,0.0,-999.0,88,-99.99,,,0.00,weatherlink.com 1.10,2013-07-27 12:22:00,
2013-07-27 05:37:00,63.9,60.0,29.93,North,360,0.0,-999.0,88,-99.99,,,0.00,weatherlink.com 1.10,2013-07-27 12:37:00,
2013-07-27 05:52:00,63.7,60.0,29.93,North,360,0.0,-999.0,88,-99.99,,,0.00,weatherlink.com 1.10,2013-07-27 12:52:00,
2013-07-27 06:07:00,63.5,60.0,29.93,North,360,0.0,-999.0,88,-99.99,,,0.00,weatherlink.com 1.10,2013-07-27 13:07:00,
2013-07-27 06:22:00,63.2,60.0,29.94,North,360,0.0,-999.0,89,-99.99,,,0.00,weatherlink.com 1.10,2013-07-27 13:22:00,
2013-07-27 06:37:00,63.1,60.0,29.94,North,360,0.0,-999.0,89,-99.99,,,0.00,weatherlink.com 1.10,2013-07-27 13:37:00,
2013-07-27 06:52:00,63.4,60.0,29.93,North,360,0.0,-999.0,89,-99.99,,,0.00,weatherlink.com 1.10,2013-07-27 13:52:00,
2013-07-27 07:07:00,63.9,61.0,29.94,North,360,0.0,-999.0,90,-99.99,,,0.00,weatherlink.com 1.10,2013-07-27 14:07:00,
2013-07-27 07:22:00,64.6,62.0,29.94,North,360,0.0,-999.0,90,-99.99,,,0.00,weatherlink.com 1.10,2013-07-27 14:22:00,
2013-07-27 07:37:00,65.4,62.0,29.94,North,360,0.0,-999.0,89,-99.99,,,0.00,weatherlink.com 1.10,2013-07-27 14:37:00,
2013-07-27 07:52:00,66.6,63.0,29.94,North,360,0.0,-999.0,87,-99.99,,,0.00,weatherlink.com 1.10,2013-07-27 14:52:00,
2013-07-27 08:07:00,68.4,63.0,29.94,North,360,0.0,-999.0,84,-99.99,,,0.00,weatherlink.com 1.10,2013-07-27 15:07:00,
2013-07-27 08:22:00,69.6,63.0,29.94,South,178,0.0,-999.0,80,-99.99,,,0.00,weatherlink.com 1.10,2013-07-27 15:22:00,
2013-07-27 08:37:00,69.9,63.0,29.94,WSW,256,0.0,-999.0,78,-99.99,,,0.00,weatherlink.com 1.10,2013-07-27 15:37:00,
2013-07-27 08:52:00,70.2,63.0,29.94,West,281,2.0,-999.0,78,-99.99,,,0.00,weatherlink.com 1.10,2013-07-27 15:52:00,
2013-07-27 09:07:00,71.0,63.0,29.94,SW,234,0.0,-999.0,77,-99.99,,,0.00,weatherlink.com 1.10,2013-07-27 16:07:00,
2013-07-27 09:22:00,71.9,64.0,29.93,SSW,202,3.0,-999.0,76,-99.99,,,0.00,weatherlink.com 1.10,2013-07-27 16:22:00,
2013-07-27 09:37:00,72.9,64.0,29.93,South,184,2.0,-999.0,74,-99.99,,,0.00,weatherlink.com 1.10,2013-07-27 16:37:00,
2013-07-27 09:52:00,73.1,64.0,29.93,SSW,201,2.0,-999.0,74,-99.99,,,0.00,weatherlink.com 1.10,2013-07-27 16:52:00,
2013-07-27 10:07:00,73.5,64.0,29.92,SSW,211,3.0,-999.0,73,-99.99,,,0.00,weatherlink.com 1.10,2013-07-27 17:07:00,
2013-07-27 10:22:00,73.0,64.0,29.93,SSW,194,4.0,-999.0,73,-99.99,,,0.00,weatherlink.com 1.10,2013-07-27 17:22:00,
2013-07-27 10:38:00,72.7,64.0,29.92,SSW,208,6.0,-999.0,75,-99.99,,,0.00,weatherlink.com 1.10,2013-07-27 17:38:00,
2013-07-27 10:53:00,73.2,64.0,29.92,SW,234,7.0,-999.0,74,-99.99,,,0.00,weatherlink.com 1.10,2013-07-27 17:53:00,
2013-07-27 11:08:00,73.5,64.0,29.92,South,182,4.0,-999.0,73,-99.99,,,0.00,weatherlink.com 1.10,2013-07-27 18:08:00,
2013-07-27 11:23:00,74.0,65.0,29.92,SSW,201,5.0,-999.0,73,-99.99,,,0.00,weatherlink.com 1.10,2013-07-27 18:23:00,
2013-07-27 11:38:00,74.1,65.0,29.92,SSW,196,5.0,-999.0,72,-99.99,,,0.00,weatherlink.com 1.10,2013-07-27 18:38:00,
2013-07-27 11:53:00,74.2,65.0,29.91,South,175,10.0,-999.0,72,-99.99,,,0.00,weatherlink.com 1.10,2013-07-27 18:53:00,
2013-07-27 12:08:00,74.5,65.0,29.91,WSW,237,6.0,-999.0,71,-99.99,,,0.00,weatherlink.com 1.10,2013-07-27 19:08:00,
2013-07-27 12:23:00,74.7,65.0,29.91,SSE,157,4.0,-999.0,71,-99.99,,,0.00,weatherlink.com 1.10,2013-07-27 19:23:00,
2013-07-27 12:38:00,74.8,64.0,29.90,West,278,0.0,-999.0,69,-99.99,,,0.00,weatherlink.com 1.10,2013-07-27 19:38:00,
2013-07-27 12:53:00,74.9,65.0,29.90,SSW,199,3.0,-999.0,71,-99.99,,,0.00,weatherlink.com 1.10,2013-07-27 19:53:00,
2013-07-27 13:08:00,75.0,65.0,29.89,WSW,238,6.0,-999.0,70,-99.99,,,0.00,weatherlink.com 1.10,2013-07-27 20:08:00,
2013-07-27 13:23:00,76.6,65.0,29.89,SW,231,6.0,-999.0,68,-99.99,,,0.00,weatherlink.com 1.10,2013-07-27 20:23:00,
2013-07-27 13:38:00,75.4,65.0,29.88,SSW,196,3.0,-999.0,71,-99.99,,,0.00,weatherlink.com 1.10,2013-07-27 20:38:00,
2013-07-27 13:53:00,75.3,65.0,29.88,SW,231,6.0,-999.0,70,-99.99,,,0.00,weatherlink.com 1.10,2013-07-27 20:53:00,
2013-07-27 14:08:00,75.8,65.0,29.87,South,186,5.0,-999.0,70,-99.99,,,0.00,weatherlink.com 1.10,2013-07-27 21:08:00,
2013-07-27 14:23:00,75.9,65.0,29.86,WSW,248,6.0,-999.0,69,-99.99,,,0.00,weatherlink.com 1.10,2013-07-27 21:23:00,
2013-07-27 14:38:00,75.8,65.0,29.86,WSW,238,10.0,-999.0,69,-99.99,,,0.00,weatherlink.com 1.10,2013-07-27 21:38:00,
2013-07-27 14:53:00,76.2,65.0,29.86,SW,215,11.0,-999.0,69,-99.99,,,0.00,weatherlink.com 1.10,2013-07-27 21:53:00,
2013-07-27 15:08:00,77.1,65.0,29.85,SSW,200,3.0,-999.0,67,-99.99,,,0.00,weatherlink.com 1.10,2013-07-27 22:08:00,
2013-07-27 15:23:00,77.4,65.0,29.85,SSW,210,6.0,-999.0,65,-99.99,,,0.00,weatherlink.com 1.10,2013-07-27 22:23:00,
2013-07-27 15:38:00,77.0,65.0,29.84,South,173,6.0,-999.0,67,-99.99,,,0.00,weatherlink.com 1.10,2013-07-27 22:38:00,
2013-07-27 15:53:00,77.5,65.0,29.84,SE,144,4.0,-999.0,65,-99.99,,,0.00,weatherlink.com 1.10,2013-07-27 22:53:00,
2013-07-27 16:08:00,78.1,65.0,29.83,SSW,207,5.0,-999.0,64,-99.99,,,0.00,weatherlink.com 1.10,2013-07-27 23:08:00,
2013-07-27 16:23:00,78.6,65.0,29.83,SSE,166,4.0,-999.0,63,-99.99,,,0.00,weatherlink.com 1.10,2013-07-27 23:23:00,
2013-07-27 16:38:00,78.9,65.0,29.83,SSW,203,9.0,-999.0,63,-99.99,,,0.00,weatherlink.com 1.10,2013-07-27 23:38:00,
2013-07-27 16:53:00,79.2,65.0,29.83,SSE,159,5.0,-999.0,63,-99.99,,,0.00,weatherlink.com 1.10,2013-07-27 23:53:00,
2013-07-27 17:08:00,78.8,65.0,29.82,SW,223,2.0,-999.0,62,-99.99,,,0.00,weatherlink.com 1.10,2013-07-28 00:08:00,
2013-07-27 17:23:00,78.5,64.0,29.82,SW,234,2.0,-999.0,62,-99.99,,,0.00,weatherlink.com 1.10,2013-07-28 00:23:00,
2013-07-27 17:38:00,78.0,65.0,29.82,South,190,0.0,-999.0,64,-99.99,,,0.00,weatherlink.com 1.10,2013-07-28 00:38:00,
2013-07-27 17:53:00,78.5,65.0,29.81,WNW,300,2.0,-999.0,63,-99.99,,,0.00,weatherlink.com 1.10,2013-07-28 00:53:00,
2013-07-27 18:08:00,76.6,64.0,29.81,NW,317,5.0,-999.0,65,-99.99,,,0.00,weatherlink.com 1.10,2013-07-28 01:08:00,
2013-07-27 18:23:00,74.7,63.0,29.81,NW,316,3.0,-999.0,68,-99.99,,,0.00,weatherlink.com 1.10,2013-07-28 01:23:00,
2013-07-27 18:38:00,73.4,63.0,29.81,NNE,18,2.0,-999.0,70,-99.99,,,0.00,weatherlink.com 1.10,2013-07-28 01:38:00,
2013-07-27 18:53:00,72.4,63.0,29.81,NE,36,4.0,-999.0,72,-99.99,,,0.00,weatherlink.com 1.10,2013-07-28 01:53:00,
2013-07-27 19:08:00,71.2,63.0,29.81,NNW,338,2.0,-999.0,74,-99.99,,,0.00,weatherlink.com 1.10,2013-07-28 02:08:00,
2013-07-27 19:23:00,70.3,62.0,29.82,NW,321,3.0,-999.0,76,-99.99,,,0.00,weatherlink.com 1.10,2013-07-28 02:23:00,
2013-07-27 19:38:00,69.6,62.0,29.82,NNW,344,1.0,-999.0,77,-99.99,,,0.00,weatherlink.com 1.10,2013-07-28 02:38:00,
2013-07-27 19:53:00,69.0,62.0,29.82,NNW,341,0.0,-999.0,78,-99.99,,,0.00,weatherlink.com 1.10,2013-07-28 02:53:00,
2013-07-27 20:08:00,68.2,62.0,29.82,NW,309,1.0,-999.0,80,-99.99,,,0.00,weatherlink.com 1.10,2013-07-28 03:08:00,
2013-07-27 20:23:00,66.9,61.0,29.83,NW,312,3.0,-999.0,81,-99.99,,,0.00,weatherlink.com 1.10,2013-07-28 03:23:00,
2013-07-27 20:38:00,66.0,61.0,29.83,NW,308,2.0,-999.0,83,-99.99,,,0.00,weatherlink.com 1.10,2013-07-28 03:38:00,
2013-07-27 20:53:00,65.6,61.0,29.84,WNW,296,2.0,-999.0,84,-99.99,,,0.00,weatherlink.com 1.10,2013-07-28 03:53:00,
2013-07-27 21:08:00,65.0,60.0,29.84,NNW,342,0.0,-999.0,84,-99.99,,,0.00,weatherlink.com 1.10,2013-07-28 04:08:00,
2013-07-27 21:23:00,64.7,60.0,29.85,NNW,345,0.0,-999.0,85,-99.99,,,0.00,weatherlink.com 1.10,2013-07-28 04:23:00,
2013-07-27 21:38:00,64.5,60.0,29.85,NNW,345,0.0,-999.0,85,-99.99,,,0.00,weatherlink.com 1.10,2013-07-28 04:38:00,
2013-07-27 21:53:00,64.3,60.0,29.86,NNW,345,0.0,-999.0,86,-99.99,,,0.00,weatherlink.com 1.10,2013-07-28 04:53:00,
2013-07-27 22:08:00,64.0,60.0,29.86,NNW,345,0.0,-999.0,86,-99.99,,,0.00,weatherlink.com 1.10,2013-07-28 05:08:00,
2013-07-27 22:23:00,63.9,60.0,29.86,NNW,345,0.0,-999.0,86,-99.99,,,0.00,weatherlink.com 1.10,2013-07-28 05:23:00,
2013-07-27 22:38:00,63.8,60.0,29.86,NNW,345,0.0,-999.0,86,-99.99,,,0.00,weatherlink.com 1.10,2013-07-28 05:38:00,
2013-07-27 22:53:00,63.8,60.0,29.86,NNW,345,0.0,-999.0,86,-99.99,,,0.00,weatherlink.com 1.10,2013-07-28 05:53:00,
2013-07-27 23:08:00,64.0,60.0,29.85,NNW,345,0.0,-999.0,86,-99.99,,,0.00,weatherlink.com 1.10,2013-07-28 06:08:00,
2013-07-27 23:23:00,64.2,60.0,29.85,NNW,345,0.0,-999.0,86,-99.99,,,0.00,weatherlink.com 1.10,2013-07-28 06:23:00,
2013-07-27 23:38:00,64.4,60.0,29.85,NNW,345,0.0,-999.0,85,-99.99,,,0.00,weatherlink.com 1.10,2013-07-28 06:38:00,
2013-07-27 23:53:00,64.4,60.0,29.85,NNW,345,0.0,-999.0,85,-99.99,,,0.00,weatherlink.com 1.10,2013-07-28 06:53:00,